createdAt,value
2019-01-30T00:01:34.393Z,38.92
2019-01-30T00:04:06.316Z,39.12
2019-01-30T00:06:39.785Z,39.00
2019-01-30T00:09:12.069Z,38.32
2019-01-30T00:11:44.300Z,38.37
2019-01-30T00:14:16.069Z,38.88
2019-01-30T00:16:47.757Z,38.32
2019-01-30T00:19:19.506Z,38.60
2019-01-30T00:21:51.312Z,38.51
2019-01-30T00:24:23.002Z,38.39
2019-01-30T00:26:54.789Z,38.05
2019-01-30T00:29:25.516Z,38.45
2019-01-30T00:31:57.318Z,38.65
2019-01-30T00:34:28.873Z,38.92
2019-01-30T00:37:00.825Z,38.50
2019-01-30T00:39:32.592Z,38.52
2019-01-30T00:42:04.541Z,38.26
2019-01-30T00:44:37.785Z,38.78
2019-01-30T00:47:15.821Z,38.79
2019-01-30T00:49:42.325Z,38.35
2019-01-30T00:52:16.412Z,38.69
2019-01-30T00:54:48.057Z,38.16
2019-01-30T00:57:19.749Z,38.50
2019-01-30T00:59:50.558Z,38.09
2019-01-30T01:02:22.313Z,38.33
2019-01-30T01:04:54.314Z,38.33
2019-01-30T01:07:26.041Z,38.25
2019-01-30T01:09:57.773Z,37.65
2019-01-30T01:12:28.861Z,37.25
2019-01-30T01:15:00.433Z,37.61
2019-01-30T01:17:32.048Z,37.55
2019-01-30T01:20:03.814Z,37.62
2019-01-30T01:22:35.581Z,37.84
2019-01-30T01:25:10.450Z,37.48
2019-01-30T01:27:42.296Z,37.48
2019-01-30T01:30:25.208Z,37.83
2019-01-30T01:32:55.794Z,37.51
2019-01-30T01:35:26.516Z,38.47
2019-01-30T01:37:58.303Z,38.18
2019-01-30T01:40:29.853Z,38.27
2019-01-30T01:43:01.766Z,38.09
2019-01-30T01:45:32.491Z,38.58
2019-01-30T01:48:04.306Z,38.43
2019-01-30T01:50:35.860Z,38.25
2019-01-30T01:53:07.688Z,37.71
2019-01-30T01:55:38.475Z,37.61
2019-01-30T01:58:10.273Z,37.17
2019-01-30T02:00:41.832Z,37.09
2019-01-30T02:03:13.398Z,37.47
2019-01-30T02:05:45.313Z,37.63
2019-01-30T02:08:16.852Z,37.62
2019-01-30T02:10:48.414Z,37.63
2019-01-30T02:13:20.075Z,38.44
2019-01-30T02:15:51.808Z,38.11
2019-01-30T02:18:22.600Z,37.65
2019-01-30T02:20:53.916Z,37.96
2019-01-30T02:23:25.512Z,37.77
2019-01-30T02:25:57.316Z,38.07
2019-01-30T02:28:28.910Z,37.36
2019-01-30T02:31:01.281Z,37.22
2019-01-30T02:33:33.320Z,37.03
2019-01-30T02:36:05.308Z,37.86
2019-01-30T02:38:36.880Z,37.47
2019-01-30T02:41:08.758Z,38.25
2019-01-30T02:43:39.632Z,38.37
2019-01-30T02:46:11.317Z,37.78
2019-01-30T02:48:43.399Z,37.78
2019-01-30T02:51:15.030Z,38.51
2019-01-30T02:53:46.781Z,37.97
2019-01-30T02:56:17.506Z,37.75
2019-01-30T02:58:49.787Z,37.15
2019-01-30T03:01:20.470Z,37.96
2019-01-30T03:03:52.305Z,37.45
2019-01-30T03:06:23.849Z,37.36
2019-01-30T03:08:56.770Z,37.52
2019-01-30T03:11:27.464Z,37.83
2019-01-30T03:13:59.322Z,36.83
2019-01-30T03:16:30.884Z,37.16
2019-01-30T03:19:02.628Z,37.21
2019-01-30T03:21:34.388Z,36.36
2019-01-30T03:24:06.081Z,36.36
2019-01-30T03:26:37.734Z,36.50
2019-01-30T03:29:09.793Z,35.58
2019-01-30T03:31:41.634Z,36.15
2019-01-30T03:34:13.366Z,37.36
2019-01-30T03:36:45.062Z,37.36
2019-01-30T03:39:16.749Z,37.33
2019-01-30T03:41:47.479Z,37.39
2019-01-30T03:44:19.320Z,36.68
2019-01-30T03:46:50.805Z,36.95
2019-01-30T03:49:22.598Z,36.98
2019-01-30T03:51:54.416Z,36.91
2019-01-30T03:54:26.074Z,36.91
2019-01-30T03:56:57.811Z,36.56
2019-01-30T03:59:29.766Z,37.41
2019-01-30T04:02:01.611Z,37.22
2019-01-30T04:04:33.348Z,36.84
2019-01-30T04:07:05.304Z,36.84
2019-01-30T04:09:36.841Z,35.94
2019-01-30T04:12:08.606Z,36.21
2019-01-30T04:14:40.521Z,36.79
2019-01-30T04:17:12.318Z,36.79
2019-01-30T04:19:43.877Z,35.15
2019-01-30T04:22:15.645Z,35.63
2019-01-30T04:24:47.337Z,36.57
2019-01-30T04:27:19.178Z,36.57
2019-01-30T04:29:50.763Z,36.78
2019-01-30T04:32:21.534Z,34.71
2019-01-30T04:34:53.536Z,34.84
2019-01-30T04:37:25.320Z,35.67
2019-01-30T04:39:57.592Z,35.17
2019-01-30T04:42:29.377Z,34.97
2019-01-30T04:45:01.049Z,34.97
2019-01-30T04:47:32.801Z,35.96
2019-01-30T04:50:04.773Z,36.22
2019-01-30T04:52:36.652Z,36.27
2019-01-30T04:55:08.714Z,36.42
2019-01-30T04:57:39.464Z,36.42
2019-01-30T05:00:14.778Z,35.63
2019-01-30T05:02:46.404Z,34.85
2019-01-30T05:05:18.080Z,36.46
2019-01-30T05:07:49.873Z,35.07
2019-01-30T05:10:21.769Z,35.68
2019-01-30T05:12:52.614Z,35.67
2019-01-30T05:15:24.436Z,34.63
2019-01-30T05:17:56.297Z,34.63
2019-01-30T05:20:28.327Z,36.09
2019-01-30T05:23:01.401Z,36.36
2019-01-30T05:25:33.317Z,35.57
2019-01-30T05:28:05.314Z,36.11
2019-01-30T05:30:36.848Z,35.99
2019-01-30T05:33:08.798Z,35.92
2019-01-30T05:35:40.410Z,35.42
2019-01-30T05:38:12.369Z,35.41
2019-01-30T05:40:44.318Z,35.57
2019-01-30T05:45:18.693Z,35.01
2019-01-30T05:47:50.429Z,35.67
2019-01-30T05:50:22.136Z,35.67
2019-01-30T05:52:54.328Z,34.98
2019-01-30T05:55:26.065Z,34.75
2019-01-30T05:57:57.795Z,35.03
2019-01-30T06:00:35.267Z,35.23
2019-01-30T06:03:07.375Z,35.31
2019-01-30T06:05:39.277Z,36.34
2019-01-30T06:08:10.848Z,34.82
2019-01-30T06:10:42.425Z,35.30
2019-01-30T06:13:14.059Z,36.39
2019-01-30T06:15:45.736Z,36.08
2019-01-30T06:18:16.487Z,35.49
2019-01-30T06:20:48.309Z,35.56
2019-01-30T06:23:20.411Z,36.18
2019-01-30T06:25:52.102Z,36.41
2019-01-30T06:28:26.253Z,36.41
2019-01-30T06:30:57.749Z,35.71
2019-01-30T06:33:28.451Z,36.72
2019-01-30T06:36:00.310Z,36.55
2019-01-30T06:38:31.902Z,36.25
2019-01-30T06:41:03.779Z,34.63
2019-01-30T06:43:35.414Z,35.07
2019-01-30T06:46:07.311Z,35.03
2019-01-30T06:48:38.886Z,35.44
2019-01-30T06:51:10.735Z,35.97
2019-01-30T06:53:41.501Z,35.28
2019-01-30T06:56:13.317Z,35.04
2019-01-30T06:58:44.893Z,34.79
2019-01-30T07:01:16.401Z,34.95
2019-01-30T07:03:48.805Z,35.03
2019-01-30T07:06:20.437Z,34.90
2019-01-30T07:08:52.629Z,34.68
2019-01-30T07:11:24.357Z,34.13
2019-01-30T07:13:56.150Z,34.13
2019-01-30T07:16:27.790Z,34.77
2019-01-30T07:18:58.591Z,35.10
2019-01-30T07:21:30.361Z,35.27
2019-01-30T07:24:02.072Z,35.27
2019-01-30T07:26:33.816Z,34.42
2019-01-30T07:29:05.633Z,35.11
2019-01-30T07:31:37.358Z,35.75
2019-01-30T07:34:09.079Z,34.46
2019-01-30T07:36:40.762Z,35.52
2019-01-30T07:39:12.034Z,34.54
2019-01-30T07:41:43.748Z,34.63
2019-01-30T07:44:14.476Z,34.26
2019-01-30T07:46:46.307Z,33.90
2019-01-30T07:49:17.865Z,34.33
2019-01-30T07:51:49.770Z,34.83
2019-01-30T07:54:20.526Z,34.45
2019-01-30T07:56:52.276Z,34.24
2019-01-30T07:59:23.877Z,34.87
2019-01-30T08:01:55.423Z,34.42
2019-01-30T08:04:27.303Z,33.95
2019-01-30T08:06:59.062Z,34.17
2019-01-30T08:09:30.813Z,33.32
2019-01-30T08:12:02.414Z,34.50
2019-01-30T08:14:34.023Z,34.29
2019-01-30T08:17:06.304Z,33.93
2019-01-30T08:19:37.890Z,34.20
2019-01-30T08:22:09.717Z,34.51
2019-01-30T08:24:40.529Z,34.17
2019-01-30T08:27:12.692Z,34.53
2019-01-30T08:29:44.635Z,34.53
2019-01-30T08:32:16.876Z,33.57
2019-01-30T08:34:48.815Z,33.57
2019-01-30T08:37:20.418Z,35.42
2019-01-30T08:39:52.059Z,34.39
2019-01-30T08:42:23.786Z,34.39
2019-01-30T08:44:54.513Z,34.22
2019-01-30T08:47:26.318Z,34.64
2019-01-30T08:49:57.862Z,35.61
2019-01-30T08:52:29.736Z,33.84
2019-01-30T08:55:00.782Z,33.73
2019-01-30T08:57:32.542Z,34.52
2019-01-30T09:00:04.441Z,34.96
2019-01-30T09:02:36.022Z,34.74
2019-01-30T09:05:09.370Z,35.24
2019-01-30T09:07:44.496Z,34.59
2019-01-30T09:10:23.313Z,34.21
2019-01-30T09:12:54.880Z,34.10
2019-01-30T09:15:28.404Z,34.38
2019-01-30T09:18:00.056Z,34.31
2019-01-30T09:20:31.775Z,34.39
2019-01-30T09:23:02.487Z,32.00
2019-01-30T09:25:34.268Z,33.25
2019-01-30T09:28:05.995Z,33.91
2019-01-30T09:30:40.590Z,33.20
2019-01-30T09:33:13.405Z,33.53
2019-01-30T09:35:45.354Z,33.53
2019-01-30T09:38:17.371Z,32.70
2019-01-30T09:40:49.299Z,32.52
2019-01-30T09:43:20.847Z,32.77
2019-01-30T09:45:52.744Z,32.92
2019-01-30T09:48:23.471Z,31.83
2019-01-30T09:50:55.296Z,32.82
2019-01-30T09:53:26.845Z,34.16
2019-01-30T09:55:58.620Z,32.72
2019-01-30T09:58:29.427Z,31.95
2019-01-30T10:01:01.061Z,33.34
2019-01-30T10:03:36.372Z,32.38
2019-01-30T10:06:08.772Z,33.08
2019-01-30T10:08:40.462Z,31.91
2019-01-30T10:11:12.302Z,32.44
2019-01-30T10:13:43.834Z,32.63
2019-01-30T10:16:15.766Z,31.25
2019-01-30T10:18:46.479Z,32.48
2019-01-30T10:21:18.305Z,32.51
2019-01-30T10:23:49.870Z,32.67
2019-01-30T10:26:21.741Z,31.03
2019-01-30T10:28:52.466Z,32.12
2019-01-30T10:31:24.306Z,32.47
2019-01-30T10:33:55.827Z,32.98
2019-01-30T10:36:27.592Z,32.52
2019-01-30T10:38:58.671Z,32.51
2019-01-30T10:54:37.262Z,31.07
2019-01-30T10:57:09.056Z,31.26
2019-01-30T10:59:40.741Z,31.88
2019-01-30T11:02:11.468Z,32.97
2019-01-30T11:04:43.300Z,33.69
2019-01-30T11:07:15.424Z,33.19
2019-01-30T11:09:47.666Z,32.75
2019-01-30T11:12:19.393Z,32.78
2019-01-30T11:14:51.298Z,32.79
2019-01-30T11:17:22.893Z,34.27
2019-01-30T11:19:54.758Z,33.79
2019-01-30T11:22:25.492Z,32.19
2019-01-30T11:24:57.305Z,32.68
2019-01-30T11:27:28.836Z,33.18
2019-01-30T11:30:00.581Z,33.10
2019-01-30T11:32:32.301Z,33.01
2019-01-30T11:35:03.854Z,33.01
2019-01-30T11:37:35.806Z,31.60
2019-01-30T11:40:10.310Z,31.90
2019-01-30T11:42:41.878Z,32.07
2019-01-30T11:45:28.307Z,33.24
2019-01-30T11:48:00.314Z,32.73
2019-01-30T11:50:31.849Z,32.88
2019-01-30T11:53:04.300Z,33.67
2019-01-30T11:55:38.819Z,34.03
2019-01-30T11:58:09.779Z,32.85
2019-01-30T12:00:47.329Z,33.22
2019-01-30T12:03:19.304Z,32.11
2019-01-30T12:05:51.302Z,33.35
2019-01-30T12:08:23.384Z,30.57
2019-01-30T12:10:55.000Z,33.81
2019-01-30T12:13:26.705Z,34.16
2019-01-30T12:15:57.486Z,33.62
2019-01-30T12:18:29.262Z,32.75
2019-01-30T12:21:00.838Z,31.71
2019-01-30T12:23:32.609Z,32.11
2019-01-30T12:26:04.349Z,33.38
2019-01-30T12:28:36.055Z,33.38
2019-01-30T12:31:07.753Z,33.87
2019-01-30T12:33:38.457Z,32.63
2019-01-30T12:36:10.306Z,32.85
2019-01-30T12:38:41.986Z,31.27
2019-01-30T12:41:13.774Z,31.63
2019-01-30T12:43:45.404Z,31.83
2019-01-30T12:46:17.380Z,32.03
2019-01-30T12:48:49.285Z,32.03
2019-01-30T12:51:20.839Z,32.31
2019-01-30T12:53:52.381Z,31.67
2019-01-30T12:56:24.056Z,31.95
2019-01-30T12:58:55.758Z,30.57
2019-01-30T13:01:26.622Z,31.60
2019-01-30T13:03:58.394Z,31.63
2019-01-30T13:06:30.314Z,31.63
2019-01-30T13:09:02.061Z,32.13
2019-01-30T13:11:33.736Z,31.03
2019-01-30T13:14:04.617Z,31.03
2019-01-30T13:16:36.425Z,31.74
2019-01-30T13:19:08.309Z,31.74
2019-01-30T13:21:39.845Z,32.05
2019-01-30T13:24:11.417Z,31.89
2019-01-30T13:26:43.051Z,32.38
2019-01-30T13:29:14.769Z,32.39
2019-01-30T13:31:45.491Z,32.40
2019-01-30T13:34:17.305Z,31.47
2019-01-30T13:36:49.007Z,32.39
2019-01-30T13:39:20.796Z,32.01
2019-01-30T13:41:52.810Z,31.27
2019-01-30T13:44:24.806Z,32.15
2019-01-30T13:46:56.476Z,32.15
2019-01-30T13:49:28.309Z,32.55
2019-01-30T13:52:00.383Z,32.02
2019-01-30T13:54:32.344Z,32.33
2019-01-30T13:57:04.780Z,31.74
2019-01-30T13:59:36.435Z,32.77
2019-01-30T14:02:08.797Z,32.37
2019-01-30T14:04:40.642Z,32.65
2019-01-30T14:07:12.672Z,32.38
2019-01-30T14:09:43.524Z,32.38
2019-01-30T14:12:15.798Z,32.04
2019-01-30T14:14:47.403Z,32.84
2019-01-30T14:17:19.161Z,32.00
2019-01-30T14:19:51.733Z,32.72
2019-01-30T14:22:22.696Z,31.90
2019-01-30T14:24:53.754Z,31.60
2019-01-30T14:27:24.488Z,31.65
2019-01-30T14:29:58.312Z,31.98
2019-01-30T14:32:29.729Z,32.08
2019-01-30T14:35:10.125Z,31.89
2019-01-30T14:37:33.857Z,32.83
2019-01-30T14:40:05.933Z,33.83
2019-01-30T14:42:37.785Z,33.57
2019-01-30T14:45:10.939Z,33.30
2019-01-30T14:47:42.797Z,33.23
2019-01-30T14:50:21.794Z,32.38
2019-01-30T14:52:52.635Z,32.89
2019-01-30T14:55:23.639Z,32.63
2019-01-30T14:57:55.344Z,32.82
2019-01-30T15:00:33.171Z,32.82
2019-01-30T15:03:04.979Z,31.53
2019-01-30T15:05:36.799Z,29.35
2019-01-30T15:08:08.618Z,28.38
2019-01-30T15:10:40.393Z,27.70
2019-01-30T15:13:12.313Z,27.70
2019-01-30T15:15:44.341Z,27.11
2019-01-30T15:18:16.305Z,26.54
2019-01-30T15:20:47.881Z,26.58
2019-01-30T15:23:19.698Z,26.22
2019-01-30T15:25:50.464Z,26.04
2019-01-30T15:28:22.349Z,26.17
2019-01-30T15:30:53.878Z,26.01
2019-01-30T15:33:25.393Z,25.94
2019-01-30T15:35:57.017Z,25.85
2019-01-30T15:38:28.855Z,26.41
2019-01-30T15:41:00.674Z,26.05
2019-01-30T15:43:35.234Z,26.81
2019-01-30T15:46:06.298Z,26.81
2019-01-30T15:48:44.280Z,27.25
2019-01-30T15:51:15.981Z,27.12
2019-01-30T15:53:47.750Z,27.55
2019-01-30T15:56:18.669Z,27.33
2019-01-30T15:58:49.604Z,27.94
2019-01-30T16:01:29.644Z,28.47
2019-01-30T16:04:01.359Z,28.59
2019-01-30T16:06:33.056Z,28.59
2019-01-30T16:09:06.257Z,29.05
2019-01-30T16:11:37.833Z,28.90
2019-01-30T16:14:09.596Z,29.88
2019-01-30T16:16:41.403Z,30.73
2019-01-30T16:19:13.056Z,30.73
2019-01-30T16:21:44.781Z,30.82
2019-01-30T16:24:16.783Z,30.17
2019-01-30T16:26:47.604Z,31.60
2019-01-30T16:29:19.475Z,32.39
2019-01-30T16:31:51.064Z,32.39
2019-01-30T16:34:22.750Z,33.03
2019-01-30T16:36:53.462Z,32.88
2019-01-30T16:39:25.413Z,32.56
2019-01-30T16:41:57.065Z,31.82
2019-01-30T16:44:28.748Z,32.29
2019-01-30T16:46:59.473Z,31.75
2019-01-30T16:49:31.306Z,32.32
2019-01-30T16:52:02.905Z,32.23
2019-01-30T16:54:34.651Z,32.39
2019-01-30T16:57:06.323Z,32.54
2019-01-30T16:59:38.030Z,32.54
2019-01-30T17:02:09.779Z,32.66
2019-01-30T17:04:41.477Z,32.37
2019-01-30T17:07:13.062Z,32.81
2019-01-30T17:09:44.755Z,32.73
2019-01-30T17:12:15.629Z,33.42
2019-01-30T17:14:47.376Z,32.06
2019-01-30T17:17:19.305Z,32.06
2019-01-30T17:19:50.897Z,30.50
2019-01-30T17:22:22.746Z,28.78
2019-01-30T17:24:54.806Z,27.95
2019-01-30T17:27:26.555Z,27.07
2019-01-30T17:29:58.308Z,26.47
2019-01-30T17:32:30.017Z,26.47
2019-01-30T17:35:01.778Z,26.22
2019-01-30T17:37:32.509Z,26.86
2019-01-30T17:40:04.401Z,26.54
2019-01-30T17:42:36.310Z,26.78
2019-01-30T17:45:09.305Z,27.16
2019-01-30T17:47:40.857Z,27.12
2019-01-30T17:50:15.988Z,27.45
2019-01-30T17:52:47.766Z,27.92
2019-01-30T17:55:18.524Z,27.12
2019-01-30T17:57:50.738Z,28.54
2019-01-30T18:00:35.693Z,29.06
2019-01-30T18:03:06.449Z,28.99
2019-01-30T18:05:38.376Z,29.01
2019-01-30T18:08:09.999Z,29.10
2019-01-30T18:10:41.763Z,29.15
2019-01-30T18:13:12.535Z,29.79
2019-01-30T18:15:44.405Z,33.57
2019-01-30T18:18:16.303Z,33.57
2019-01-30T18:20:48.344Z,31.87
2019-01-30T18:23:22.750Z,32.10
2019-01-30T18:25:53.480Z,32.69
2019-01-30T18:28:25.373Z,32.02
2019-01-30T18:30:57.301Z,32.19
2019-01-30T18:33:30.060Z,32.67
2019-01-30T18:36:01.798Z,31.69
2019-01-30T18:38:35.838Z,30.67
2019-01-30T18:41:07.267Z,29.83
2019-01-30T18:43:38.998Z,29.78
2019-01-30T18:46:11.305Z,29.92
2019-01-30T18:48:42.869Z,30.20
2019-01-30T18:51:14.896Z,29.30
2019-01-30T18:53:46.802Z,29.91
2019-01-30T18:56:19.299Z,29.90
2019-01-30T18:58:51.303Z,29.51
2019-01-30T19:01:23.297Z,30.28
2019-01-30T19:03:55.347Z,30.55
2019-01-30T19:06:27.479Z,30.46
2019-01-30T19:08:59.304Z,30.54
2019-01-30T19:11:31.273Z,30.47
2019-01-30T19:14:03.610Z,30.97
2019-01-30T19:16:35.326Z,34.08
2019-01-30T19:19:07.029Z,34.08
2019-01-30T19:21:38.744Z,33.69
2019-01-30T19:24:09.473Z,32.57
2019-01-30T19:26:41.263Z,33.82
2019-01-30T19:29:13.301Z,33.82
2019-01-30T19:31:45.049Z,33.09
2019-01-30T19:34:16.770Z,33.89
2019-01-30T19:36:48.859Z,33.50
2019-01-30T19:39:20.959Z,32.39
2019-01-30T19:41:52.773Z,30.77
2019-01-30T19:44:24.650Z,29.79
2019-01-30T19:46:56.361Z,28.04
2019-01-30T19:49:28.342Z,28.04
2019-01-30T19:52:00.066Z,28.24
2019-01-30T19:54:31.769Z,27.59
2019-01-30T19:57:02.512Z,27.83
2019-01-30T19:59:34.470Z,27.78
2019-01-30T20:02:06.592Z,28.38
2019-01-30T20:04:38.367Z,27.88
2019-01-30T20:07:14.794Z,27.88
2019-01-30T20:09:44.929Z,28.05
2019-01-30T20:12:28.795Z,27.81
2019-01-30T20:15:00.668Z,27.95
2019-01-30T20:17:32.468Z,27.94
2019-01-30T20:22:40.337Z,28.49
2019-01-30T20:25:18.414Z,28.49
2019-01-30T20:27:50.261Z,28.85
2019-01-30T20:30:23.804Z,29.47
2019-01-30T20:32:58.554Z,29.94
2019-01-30T20:35:30.564Z,30.13
2019-01-30T20:38:02.652Z,30.46
2019-01-30T20:40:34.529Z,30.46
2019-01-30T20:43:06.393Z,32.14
2019-01-30T20:45:38.048Z,32.14
2019-01-30T20:48:10.362Z,33.71
2019-01-30T20:50:42.307Z,32.77
2019-01-30T20:53:14.303Z,33.80
2019-01-30T20:55:46.761Z,33.75
2019-01-30T20:58:17.518Z,33.78
2019-01-30T21:00:49.301Z,33.56
2019-01-30T21:03:21.028Z,33.73
2019-01-30T21:05:52.751Z,33.45
2019-01-30T21:08:24.794Z,33.86
2019-01-30T21:10:56.376Z,34.34
2019-01-30T21:13:28.049Z,33.99
2019-01-30T21:16:00.260Z,34.07
2019-01-30T21:18:32.061Z,34.26
2019-01-30T21:21:04.296Z,34.48
2019-01-30T21:23:35.881Z,34.53
2019-01-30T21:26:07.389Z,33.90
2019-01-30T21:28:39.041Z,34.73
2019-01-30T21:31:10.770Z,35.15
2019-01-30T21:33:42.647Z,34.89
2019-01-30T21:36:13.446Z,35.07
2019-01-30T21:38:45.262Z,35.11
2019-01-30T21:41:17.403Z,34.87
2019-01-30T21:43:49.422Z,35.40
2019-01-30T21:46:21.037Z,35.42
2019-01-30T21:48:55.267Z,35.71
2019-01-30T21:51:26.702Z,35.38
2019-01-30T21:53:58.676Z,35.38
2019-01-30T21:56:29.471Z,34.81
2019-01-30T21:59:01.417Z,35.42
2019-01-30T22:01:33.741Z,35.32
2019-01-30T22:04:05.868Z,35.74
2019-01-30T22:06:37.746Z,35.47
2019-01-30T22:09:09.522Z,35.42
2019-01-30T22:11:41.342Z,35.22
2019-01-30T22:14:13.005Z,35.62
2019-01-30T22:16:44.748Z,35.43
2019-01-30T22:19:15.475Z,34.76
2019-01-30T22:21:47.263Z,35.36
2019-01-30T22:24:18.870Z,35.67
2019-01-30T22:26:50.741Z,35.33
2019-01-30T22:29:21.495Z,35.77
2019-01-30T22:31:53.303Z,35.46
2019-01-30T22:34:24.879Z,35.64
2019-01-30T22:36:56.400Z,35.81
2019-01-30T22:39:28.438Z,35.76
2019-01-30T22:42:02.418Z,35.34
2019-01-30T22:44:33.384Z,35.78
2019-01-30T22:47:05.391Z,35.78
2019-01-30T22:49:38.050Z,35.81
2019-01-30T22:52:09.761Z,35.59
2019-01-30T22:54:40.489Z,35.78
2019-01-30T22:57:12.302Z,35.60
2019-01-30T22:59:43.870Z,36.17
2019-01-30T23:02:16.019Z,35.90
2019-01-30T23:05:17.826Z,35.68
2019-01-30T23:08:34.724Z,35.67
2019-01-30T23:11:59.398Z,35.09
2019-01-30T23:14:56.634Z,35.74
2019-01-30T23:18:42.773Z,35.50
2019-01-30T23:21:22.941Z,35.50
2019-01-30T23:25:19.826Z,35.81
2019-01-30T23:28:22.984Z,35.93
2019-01-30T23:32:25.810Z,36.26
2019-01-30T23:35:54.823Z,36.04
2019-01-30T23:39:24.310Z,36.21
2019-01-30T23:42:49.266Z,36.16
2019-01-30T23:46:35.841Z,36.26
2019-01-30T23:50:15.748Z,35.83
2019-01-30T23:53:54.273Z,35.96
2019-01-30T23:57:33.004Z,36.07
